Hauptseite
METAR-TAF:

METAR-TAF

Flughäfen :

Wittmund, Deutschland

Fliegerhorst Wittmundhafen

Breite: 53-33N, Länge: 007-40E, Höhe: 8 m

Beobachtung

Neuester Wetterbericht von vor 41 Minuten, um 11:20 UTC
Wind 10 kt aus West/Nordwest
Temperatur 18°C
Luftfeuchtigkeit 64%
Luftdruck 1022 hPa
Sichtweite 10 km oder mehr
Aufgelockert bewölkt in der Höhe von 2500 ft

METAR: ETNT 211120Z 30010KT 9999 SCT025 18/11 Q1022 BLU+BLU+

Zeit: 14:01 (12:01 UTC)

Prognose

Neuester Wetterbericht von vor 1 Stunde und 37 Minuten, um 10:24 UTC
Gültige Prognose vom 21 um 11 UTC bis 21 um 20 UTC
Wind 10 kt aus Nordwest, Böen bis zu 20 kt
Sichtweite 10 km oder mehr
Aufgelockert bewölkt in der Höhe von 3000 ft
Aufgelockert bewölkt in der Höhe von 5000 ft

TAF: ETNT 211024Z 2111/2120 32010G20KT 9999 NSW SCT030 SCT050 BY ETGL

Wetterbeobachtungen und Prognosen von mehr als 4000 Flughäfen (METAR und TAF Bericht).

Die verfügbaren Stationen werden durch gelbe und rote Markierungen auf der Karte dargestellt.

Führen Sie die Maus auf sie, um den Namen der Station zu sehen.

Darauf klicken, um die Beobachtung von Wetterbeobachtungen und Prognosen zu sehen.

Um die Karte zu ändern : klicken Sie auf den grünen Tasten mit einem schwarzen Kreuz Zum Vergrößern, auf den grünen Button mit einem Gedankenstrich zu verkleinern, oder auf die grünen Pfeile für benachbarte Karten.


METAR-TAF: